Tylersburg, PA (16361)

1:37 AM EST on March 06, 2015 (GMT -0500)
Penn Oaks Campground | Change Station
CLOSE
Current Station
Personal Weather Station
Location: Leeper, PA
Elevation: 1621 ft
Nearby Weather Stations

Elev 1621 ft 41.37 °N, 79.29 °W | Updated 0 second ago

Partly Cloudy
Partly Cloudy
-6.5 °F
Feels Like -7 °F
N
0.0
Wind Variable Wind from NW
Gusts 0.0 mph

Today
High -- | Low -- °F
--% Chance of Precip.
Yesterday
High -- | Low -- °F
Precip. -- in
6:44 AM 6:13 PM
Full, 100% visible
Pressure 30.50 in
Visibility 10.0 miles
Clouds Clear
Windchill -7 °F
Dew Point -10 °F
Humidity 85%
Rainfall in
Snow Depth Not available.
UV 0 out of 12
Pollen .40 out of 12
Air Quality Not available.
Flu Activity Not available.
METAR KDUJ 060553Z AUTO 25003KT 10SM CLR M18/M21 A3037 RMK AO2 SLP327 T11831206 11117 21194 50000

More Conditions Fewer Conditions

Pressure 30.50 in
Visibility 10.0 miles
Clouds Clear
Windchill -7 °F
Dew Point -10 °F
Humidity 85%
Rainfall in
Snow Depth Not available.
UV 0 out of 12
Pollen .40 out of 12
Air Quality Not available.
Flu Activity Not available.
METAR KDUJ 060553Z AUTO 25003KT 10SM CLR M18/M21 A3037 RMK AO2 SLP327 T11831206 11117 21194 50000

More Conditions Fewer Conditions

10-Day Weather Forecast

Almanac

Astronomy

Mar. 06, 2015 Rise Set
Actual Time
Civil Twilight
Nautical Twilight
Astronomical Twilight
Moon
Length of Visible Light
Length of Day
Tomorrow will be .
, % of the Moon is Illuminated

Today's Extremes

State Highs State Lows

Community

WunderPhotos

Upload Photos

1,803,195 photos uploaded!

WunderBlogs® & News

Nearby

Air Quality

  Air Quality AQ Index Pollutant
Not available.

Snow Depth

Station Depth Elevation

Earthquake Activity

City Distance Mag. Time & Date
Minimum magnitude displayed is 2.5.

Coastal Water Temperatures

Place Temperature

Nearby Weather Stations